Airport View

Enter AWOS ICAO identifier for current METAR.

ex. KFNL

KHNZ 202350Z AUTO 00000KT 10SM CLR 17/17 A3022 RMK AO2 T01730172 10245 20173

20 Oct 2020 23:50

Frequency: 118.625

Phone: 919-693-9516

Other Area AWOS: KW63 - KTDF - KLHZ - KW78

TAF AMD KRDU 202000Z 2020/2118 23004KT P6SM FEW035 BKN250 FM210600 00000KT P6SM OVC030 FM210800 00000KT 2SM BR OVC003 FM211300 08003KT P6SM BKN008 FM211500 10003KT P6SM BKN015